Armstrong Station, Canada
Current Conditions -  °F | °C
As of 12:00 PM on Thursday 30 Oct 2014 (Local Time) from CYPL Reporting Station
Light Snow Light Snow  
Wind Chill: 18°   Ceiling: 500
Heat Index: 27°   Visibility: 1.5mi
Dew Point: 23°   Wind: 8mph
Humidity: 86%   Direction: 360°N
Pressure: 30.04"   Gusts: NA
Location:  50.3°N, 89.03°W
Report Text: CYPL 301600Z 36007KT 310V060 1 1/2SM -SN OVC005 M03/M05 A3004 RMK SN2SF6 SLP198
Loading
Personal Weather Stations






























Interactive Weather Map
Tropical Storm Tracking
New forecast layout! Learn more

10-Day Weather Forecast

Advertisements
Track Severe Weather on mobile